<?xml version="1.0" encoding="UTF-8" standalone="no" ?>
<gpx xmlns="http://www.topografix.com/GPX/1/1" xmlns:xsi="http://www.w3.org/2001/XMLSchema-instance" xsi:schemaLocation="http://www.topografix.com/GPX/1/1 http://www.topografix.com/GPX/1/1/gpx.xsd" version="1.1" creator="VisuGPX - https://www.visugpx.com">
  <metadata>
    <name>19 juil</name>
    <desc><![CDATA[

]]></desc>
  </metadata>
  <trk>
    <name><![CDATA[19 juil]]></name>
    <extensions>
      <line xmlns="http://www.topografix.com/GPX/gpx_style/0/2">
        <color>000000</color>
        <width>4</width>
      </line>
    </extensions>
    <trkseg>
      <trkpt lat="44.76943" lon="3.8828">
        <ele>1152.8</ele>
      </trkpt>
      <trkpt lat="44.7694" lon="3.88275">
        <ele>1152.6</ele>
      </trkpt>
      <trkpt lat="44.76936" lon="3.88259">
        <ele>1152.1</ele>
      </trkpt>
      <trkpt lat="44.7692" lon="3.88236">
        <ele>1151.316</ele>
        <time>2019-03-25T18:47:31Z</time>
      </trkpt>
      <trkpt lat="44.76896" lon="3.88224">
        <ele>1150.386</ele>
        <time>2019-03-25T18:47:51Z</time>
      </trkpt>
      <trkpt lat="44.76782" lon="3.88278">
        <ele>1134.867</ele>
        <time>2019-03-25T18:48:11Z</time>
      </trkpt>
      <trkpt lat="44.76725" lon="3.88325">
        <ele>1128.794</ele>
        <time>2019-03-25T18:48:31Z</time>
      </trkpt>
      <trkpt lat="44.76662" lon="3.88324">
        <ele>1123.157</ele>
        <time>2016-06-07T22:25:13Z</time>
      </trkpt>
      <trkpt lat="44.7664" lon="3.88311">
        <ele>1122.722</ele>
        <time>2016-06-07T22:25:33Z</time>
      </trkpt>
      <trkpt lat="44.76558" lon="3.88257">
        <ele>1114.508</ele>
        <time>2016-06-07T22:25:53Z</time>
      </trkpt>
      <trkpt lat="44.76446" lon="3.88194">
        <ele>1104.182</ele>
        <time>2016-06-07T22:26:13Z</time>
      </trkpt>
      <trkpt lat="44.76328" lon="3.88143">
        <ele>1096.273</ele>
        <time>2016-06-07T22:26:33Z</time>
      </trkpt>
      <trkpt lat="44.76189" lon="3.88016">
        <ele>1084.844</ele>
        <time>2016-06-07T22:26:53Z</time>
      </trkpt>
      <trkpt lat="44.76168" lon="3.87984">
        <ele>1082.692</ele>
        <time>2016-06-07T22:27:13Z</time>
      </trkpt>
      <trkpt lat="44.76154" lon="3.8794">
        <ele>1080.06</ele>
        <time>2016-06-07T22:27:33Z</time>
      </trkpt>
      <trkpt lat="44.76131" lon="3.87889">
        <ele>1076.142</ele>
        <time>2016-06-07T22:27:53Z</time>
      </trkpt>
      <trkpt lat="44.76121" lon="3.87848">
        <ele>1070.622</ele>
        <time>2016-06-07T22:28:13Z</time>
      </trkpt>
      <trkpt lat="44.76081" lon="3.87761">
        <ele>1064.413</ele>
        <time>2016-06-07T22:28:33Z</time>
      </trkpt>
      <trkpt lat="44.76024" lon="3.87657">
        <ele>1063.147</ele>
        <time>2016-06-07T22:28:53Z</time>
      </trkpt>
      <trkpt lat="44.75986" lon="3.87507">
        <ele>1053.929</ele>
        <time>2016-06-07T22:29:13Z</time>
      </trkpt>
      <trkpt lat="44.75964" lon="3.87468">
        <ele>1050.121</ele>
        <time>2016-06-07T22:29:33Z</time>
      </trkpt>
      <trkpt lat="44.7585" lon="3.87369">
        <ele>1038.208</ele>
        <time>2016-06-07T22:29:53Z</time>
      </trkpt>
      <trkpt lat="44.75669" lon="3.87236">
        <ele>1024.457</ele>
        <time>2016-06-07T22:30:13Z</time>
      </trkpt>
      <trkpt lat="44.75628" lon="3.87188">
        <ele>1021.128</ele>
        <time>2016-06-07T22:30:33Z</time>
      </trkpt>
      <trkpt lat="44.75522" lon="3.87033">
        <ele>1015.019</ele>
        <time>2016-06-07T22:30:53Z</time>
      </trkpt>
      <trkpt lat="44.755" lon="3.86955">
        <ele>1014.467</ele>
        <time>2016-06-07T22:31:13Z</time>
      </trkpt>
      <trkpt lat="44.75454" lon="3.86873">
        <ele>1011.365</ele>
        <time>2016-06-07T22:31:33Z</time>
      </trkpt>
      <trkpt lat="44.75397" lon="3.86796">
        <ele>1008.597</ele>
        <time>2016-06-07T22:31:53Z</time>
      </trkpt>
      <trkpt lat="44.7531" lon="3.86723">
        <ele>1010.827</ele>
        <time>2016-06-07T22:32:13Z</time>
      </trkpt>
      <trkpt lat="44.75214" lon="3.86587">
        <ele>1014.518</ele>
        <time>2016-06-07T22:32:33Z</time>
      </trkpt>
      <trkpt lat="44.75155" lon="3.86479">
        <ele>1016.258</ele>
        <time>2016-06-07T22:32:53Z</time>
      </trkpt>
      <trkpt lat="44.75108" lon="3.86364">
        <ele>1008.152</ele>
        <time>2016-06-07T22:33:13Z</time>
      </trkpt>
      <trkpt lat="44.74973" lon="3.86205">
        <ele>1008.117</ele>
        <time>2016-06-07T22:33:33Z</time>
      </trkpt>
      <trkpt lat="44.74875" lon="3.86169">
        <ele>1004.108</ele>
        <time>2016-06-07T22:33:53Z</time>
      </trkpt>
      <trkpt lat="44.74805" lon="3.86136">
        <ele>997.828</ele>
        <time>2016-06-07T22:34:13Z</time>
      </trkpt>
      <trkpt lat="44.74751" lon="3.86097">
        <ele>991.699</ele>
        <time>2016-06-07T22:34:33Z</time>
      </trkpt>
      <trkpt lat="44.74712" lon="3.86051">
        <ele>986.05</ele>
        <time>2016-06-07T22:34:53Z</time>
      </trkpt>
      <trkpt lat="44.74573" lon="3.85942">
        <ele>975.378</ele>
        <time>2016-06-07T22:35:13Z</time>
      </trkpt>
      <trkpt lat="44.74551" lon="3.85935">
        <ele>974.746</ele>
        <time>2016-06-07T22:35:33Z</time>
      </trkpt>
      <trkpt lat="44.74529" lon="3.85947">
        <ele>973.778</ele>
        <time>2016-06-07T22:35:53Z</time>
      </trkpt>
      <trkpt lat="44.74478" lon="3.85998">
        <ele>969.848</ele>
        <time>2016-06-07T22:36:13Z</time>
      </trkpt>
      <trkpt lat="44.7445" lon="3.86013">
        <ele>969.519</ele>
        <time>2016-06-07T22:36:33Z</time>
      </trkpt>
      <trkpt lat="44.74414" lon="3.86013">
        <ele>968.543</ele>
        <time>2016-06-07T22:36:53Z</time>
      </trkpt>
      <trkpt lat="44.74271" lon="3.85969">
        <ele>969.764</ele>
        <time>2016-06-07T22:37:13Z</time>
      </trkpt>
      <trkpt lat="44.74229" lon="3.85942">
        <ele>965.71</ele>
        <time>2016-06-07T22:37:33Z</time>
      </trkpt>
      <trkpt lat="44.742" lon="3.85904">
        <ele>961.808</ele>
        <time>2016-06-07T22:37:53Z</time>
      </trkpt>
      <trkpt lat="44.74182" lon="3.85846">
        <ele>960.057</ele>
        <time>2016-06-07T22:38:13Z</time>
      </trkpt>
      <trkpt lat="44.7418" lon="3.85789">
        <ele>958.178</ele>
        <time>2016-06-07T22:38:33Z</time>
      </trkpt>
      <trkpt lat="44.74167" lon="3.85756">
        <ele>956.899</ele>
        <time>2016-06-07T22:38:53Z</time>
      </trkpt>
      <trkpt lat="44.74137" lon="3.85723">
        <ele>954.547</ele>
        <time>2016-06-07T22:39:13Z</time>
      </trkpt>
      <trkpt lat="44.74086" lon="3.85698">
        <ele>948.015</ele>
        <time>2016-06-07T22:39:33Z</time>
      </trkpt>
      <trkpt lat="44.7404" lon="3.85656">
        <ele>941.947</ele>
        <time>2016-06-07T22:39:53Z</time>
      </trkpt>
      <trkpt lat="44.7402" lon="3.85652">
        <ele>939.877</ele>
        <time>2016-06-07T22:40:13Z</time>
      </trkpt>
      <trkpt lat="44.73957" lon="3.85686">
        <ele>932.058</ele>
        <time>2016-06-07T22:40:33Z</time>
      </trkpt>
      <trkpt lat="44.73904" lon="3.85739">
        <ele>920.548</ele>
        <time>2016-06-07T22:40:53Z</time>
      </trkpt>
      <trkpt lat="44.73882" lon="3.85744">
        <ele>917.361</ele>
        <time>2016-06-07T22:41:13Z</time>
      </trkpt>
      <trkpt lat="44.73721" lon="3.85697">
        <ele>903.917</ele>
        <time>2016-06-07T22:41:33Z</time>
      </trkpt>
      <trkpt lat="44.73697" lon="3.85765">
        <ele>905.508</ele>
        <time>2016-06-07T22:41:53Z</time>
      </trkpt>
      <trkpt lat="44.73653" lon="3.85761">
        <ele>906.097</ele>
        <time>2016-06-07T22:42:13Z</time>
      </trkpt>
      <trkpt lat="44.7355" lon="3.85845">
        <ele>907.318</ele>
        <time>2016-06-07T22:42:33Z</time>
      </trkpt>
      <trkpt lat="44.73514" lon="3.85836">
        <ele>905.379</ele>
        <time>2016-06-07T22:42:53Z</time>
      </trkpt>
      <trkpt lat="44.73465" lon="3.85733">
        <ele>900.617</ele>
        <time>2016-06-07T22:43:13Z</time>
      </trkpt>
      <trkpt lat="44.73439" lon="3.85712">
        <ele>902.375</ele>
        <time>2016-06-07T22:43:33Z</time>
      </trkpt>
      <trkpt lat="44.73388" lon="3.85719">
        <ele>904.437</ele>
        <time>2019-03-25T19:07:31Z</time>
      </trkpt>
      <trkpt lat="44.73347" lon="3.85752">
        <ele>907.037</ele>
        <time>2019-03-25T19:07:51Z</time>
      </trkpt>
      <trkpt lat="44.73292" lon="3.85832">
        <ele>906.158</ele>
        <time>2019-03-25T19:08:11Z</time>
      </trkpt>
      <trkpt lat="44.7322" lon="3.85846">
        <ele>904.822</ele>
        <time>2019-03-25T19:08:31Z</time>
      </trkpt>
      <trkpt lat="44.73162" lon="3.85834">
        <ele>908.662</ele>
        <time>2019-03-25T19:08:51Z</time>
      </trkpt>
      <trkpt lat="44.73106" lon="3.8579">
        <ele>906.808</ele>
        <time>2019-03-25T19:09:11Z</time>
      </trkpt>
      <trkpt lat="44.73033" lon="3.85689">
        <ele>909.608</ele>
        <time>2019-03-25T19:09:31Z</time>
      </trkpt>
      <trkpt lat="44.72957" lon="3.8567">
        <ele>908.215</ele>
        <time>2019-03-25T19:09:51Z</time>
      </trkpt>
      <trkpt lat="44.72818" lon="3.85642">
        <ele>910.5</ele>
      </trkpt>
      <trkpt lat="44.72696" lon="3.8562">
        <ele>912.183</ele>
        <time>2016-06-07T22:49:53Z</time>
      </trkpt>
      <trkpt lat="44.72676" lon="3.85617">
        <ele>911.995</ele>
        <time>2016-06-07T22:50:13Z</time>
      </trkpt>
      <trkpt lat="44.72646" lon="3.85597">
        <ele>911.875</ele>
        <time>2016-06-07T22:50:33Z</time>
      </trkpt>
      <trkpt lat="44.72626" lon="3.85563">
        <ele>912.716</ele>
        <time>2016-06-07T22:50:53Z</time>
      </trkpt>
      <trkpt lat="44.72567" lon="3.85633">
        <ele>910.135</ele>
        <time>2016-06-07T22:51:13Z</time>
      </trkpt>
      <trkpt lat="44.72546" lon="3.85641">
        <ele>910.086</ele>
        <time>2016-06-07T22:51:33Z</time>
      </trkpt>
      <trkpt lat="44.72534" lon="3.85653">
        <ele>910.014</ele>
        <time>2016-06-07T22:51:53Z</time>
      </trkpt>
      <trkpt lat="44.72519" lon="3.85638">
        <ele>910.908</ele>
        <time>2016-06-07T22:52:13Z</time>
      </trkpt>
      <trkpt lat="44.72486" lon="3.85656">
        <ele>916.126</ele>
        <time>2016-06-07T22:52:33Z</time>
      </trkpt>
      <trkpt lat="44.72476" lon="3.85634">
        <ele>916.097</ele>
        <time>2016-06-07T22:52:53Z</time>
      </trkpt>
      <trkpt lat="44.72437" lon="3.85599">
        <ele>915.938</ele>
        <time>2016-06-07T22:53:13Z</time>
      </trkpt>
      <trkpt lat="44.723" lon="3.85627">
        <ele>926.746</ele>
        <time>2016-06-07T22:53:33Z</time>
      </trkpt>
      <trkpt lat="44.72278" lon="3.85597">
        <ele>924.564</ele>
        <time>2016-06-07T22:53:53Z</time>
      </trkpt>
      <trkpt lat="44.72245" lon="3.85562">
        <ele>927.696</ele>
        <time>2016-06-07T22:54:13Z</time>
      </trkpt>
      <trkpt lat="44.7221" lon="3.8555">
        <ele>931.816</ele>
        <time>2016-06-07T22:54:33Z</time>
      </trkpt>
      <trkpt lat="44.72151" lon="3.85558">
        <ele>937.267</ele>
        <time>2016-06-07T22:54:53Z</time>
      </trkpt>
      <trkpt lat="44.72078" lon="3.85586">
        <ele>942.297</ele>
        <time>2016-06-07T22:55:13Z</time>
      </trkpt>
      <trkpt lat="44.7198" lon="3.8558">
        <ele>943.423</ele>
        <time>2016-06-07T22:55:33Z</time>
      </trkpt>
      <trkpt lat="44.71886" lon="3.85614">
        <ele>949.125</ele>
        <time>2016-06-07T22:55:53Z</time>
      </trkpt>
      <trkpt lat="44.71726" lon="3.85599">
        <ele>956.608</ele>
        <time>2016-06-07T22:56:13Z</time>
      </trkpt>
      <trkpt lat="44.71652" lon="3.85598">
        <ele>961.682</ele>
        <time>2016-06-07T22:56:33Z</time>
      </trkpt>
      <trkpt lat="44.7155" lon="3.85629">
        <ele>962.523</ele>
        <time>2016-06-07T22:56:53Z</time>
      </trkpt>
      <trkpt lat="44.71445" lon="3.85643">
        <ele>960.744</ele>
        <time>2016-06-07T22:57:13Z</time>
      </trkpt>
      <trkpt lat="44.71406" lon="3.85656">
        <ele>960.052</ele>
        <time>2016-06-07T22:57:33Z</time>
      </trkpt>
      <trkpt lat="44.71214" lon="3.85667">
        <ele>969.96</ele>
        <time>2016-06-07T22:57:53Z</time>
      </trkpt>
      <trkpt lat="44.71146" lon="3.85649">
        <ele>971.282</ele>
        <time>2016-06-07T22:58:13Z</time>
      </trkpt>
      <trkpt lat="44.71008" lon="3.85639">
        <ele>970.012</ele>
        <time>2016-06-07T22:58:33Z</time>
      </trkpt>
      <trkpt lat="44.70799" lon="3.85688">
        <ele>978.163</ele>
        <time>2016-06-07T22:58:53Z</time>
      </trkpt>
      <trkpt lat="44.70721" lon="3.85696">
        <ele>980.997</ele>
        <time>2016-06-07T22:59:13Z</time>
      </trkpt>
      <trkpt lat="44.70662" lon="3.85685">
        <ele>977.423</ele>
        <time>2016-06-07T22:59:33Z</time>
      </trkpt>
      <trkpt lat="44.70612" lon="3.85645">
        <ele>974.125</ele>
        <time>2016-06-07T22:59:53Z</time>
      </trkpt>
      <trkpt lat="44.70591" lon="3.85645">
        <ele>973.808</ele>
        <time>2016-06-07T23:00:13Z</time>
      </trkpt>
      <trkpt lat="44.70535" lon="3.85663">
        <ele>972.252</ele>
        <time>2016-06-07T23:00:33Z</time>
      </trkpt>
      <trkpt lat="44.70456" lon="3.85679">
        <ele>974.793</ele>
        <time>2016-06-07T23:00:53Z</time>
      </trkpt>
      <trkpt lat="44.70422" lon="3.85675">
        <ele>979.324</ele>
        <time>2016-06-07T23:01:13Z</time>
      </trkpt>
      <trkpt lat="44.70353" lon="3.85681">
        <ele>984.812</ele>
        <time>2016-06-07T23:01:33Z</time>
      </trkpt>
      <trkpt lat="44.70104" lon="3.85775">
        <ele>1000.27</ele>
        <time>2016-06-07T23:01:53Z</time>
      </trkpt>
      <trkpt lat="44.70005" lon="3.85793">
        <ele>1004.092</ele>
        <time>2016-06-07T23:02:13Z</time>
      </trkpt>
      <trkpt lat="44.69921" lon="3.85818">
        <ele>1005.862</ele>
        <time>2016-06-07T23:02:33Z</time>
      </trkpt>
      <trkpt lat="44.69881" lon="3.85772">
        <ele>1008.633</ele>
        <time>2016-06-07T23:02:53Z</time>
      </trkpt>
      <trkpt lat="44.69849" lon="3.85711">
        <ele>1010.266</ele>
        <time>2016-06-07T23:03:13Z</time>
      </trkpt>
      <trkpt lat="44.69796" lon="3.8564">
        <ele>1015.029</ele>
        <time>2016-06-07T23:03:33Z</time>
      </trkpt>
      <trkpt lat="44.69754" lon="3.85586">
        <ele>1021.621</ele>
        <time>2016-06-07T23:03:53Z</time>
      </trkpt>
      <trkpt lat="44.69725" lon="3.85496">
        <ele>1027.008</ele>
        <time>2016-06-07T23:04:13Z</time>
      </trkpt>
      <trkpt lat="44.69684" lon="3.85407">
        <ele>1030.129</ele>
        <time>2016-06-07T23:04:33Z</time>
      </trkpt>
      <trkpt lat="44.6963" lon="3.85328">
        <ele>1035.03</ele>
        <time>2016-06-07T23:04:53Z</time>
      </trkpt>
      <trkpt lat="44.69659" lon="3.85271">
        <ele>1037.361</ele>
        <time>2016-06-07T23:05:13Z</time>
      </trkpt>
      <trkpt lat="44.69681" lon="3.85222">
        <ele>1033.929</ele>
        <time>2016-06-07T23:05:33Z</time>
      </trkpt>
      <trkpt lat="44.69748" lon="3.85157">
        <ele>1030.127</ele>
        <time>2016-06-07T23:05:53Z</time>
      </trkpt>
      <trkpt lat="44.69793" lon="3.85133">
        <ele>1027.889</ele>
        <time>2016-06-07T23:06:13Z</time>
      </trkpt>
      <trkpt lat="44.69807" lon="3.85085">
        <ele>1028.029</ele>
        <time>2016-06-07T23:06:33Z</time>
      </trkpt>
      <trkpt lat="44.6982" lon="3.85006">
        <ele>1026.75</ele>
        <time>2016-06-07T23:06:53Z</time>
      </trkpt>
      <trkpt lat="44.6985" lon="3.84908">
        <ele>1023.877</ele>
        <time>2016-06-07T23:07:13Z</time>
      </trkpt>
      <trkpt lat="44.69879" lon="3.84737">
        <ele>1020.961</ele>
        <time>2016-06-07T23:07:33Z</time>
      </trkpt>
      <trkpt lat="44.69876" lon="3.84652">
        <ele>1017.127</ele>
        <time>2016-06-07T23:07:53Z</time>
      </trkpt>
      <trkpt lat="44.69861" lon="3.84581">
        <ele>1013.908</ele>
        <time>2016-06-07T23:08:13Z</time>
      </trkpt>
      <trkpt lat="44.69895" lon="3.84481">
        <ele>1008.64</ele>
        <time>2016-06-07T23:08:33Z</time>
      </trkpt>
      <trkpt lat="44.699" lon="3.84441">
        <ele>1012.151</ele>
        <time>2016-06-07T23:08:53Z</time>
      </trkpt>
      <trkpt lat="44.69937" lon="3.84344">
        <ele>1014.922</ele>
        <time>2016-06-07T23:09:13Z</time>
      </trkpt>
      <trkpt lat="44.69946" lon="3.84292">
        <ele>1016.83</ele>
        <time>2016-06-07T23:09:33Z</time>
      </trkpt>
      <trkpt lat="44.69934" lon="3.84222">
        <ele>1018.428</ele>
        <time>2016-06-07T23:09:53Z</time>
      </trkpt>
      <trkpt lat="44.69944" lon="3.8418">
        <ele>1015.58</ele>
        <time>2016-06-07T23:10:13Z</time>
      </trkpt>
      <trkpt lat="44.69962" lon="3.84156">
        <ele>1014.09</ele>
        <time>2016-06-07T23:10:33Z</time>
      </trkpt>
      <trkpt lat="44.69985" lon="3.8415">
        <ele>1013.641</ele>
        <time>2016-06-07T23:10:53Z</time>
      </trkpt>
      <trkpt lat="44.69958" lon="3.84129">
        <ele>1014.772</ele>
        <time>2016-06-07T23:11:13Z</time>
      </trkpt>
      <trkpt lat="44.6994" lon="3.84093">
        <ele>1014.813</ele>
        <time>2016-06-07T23:11:33Z</time>
      </trkpt>
      <trkpt lat="44.69921" lon="3.84068">
        <ele>1012.914</ele>
        <time>2016-06-07T23:11:53Z</time>
      </trkpt>
      <trkpt lat="44.69876" lon="3.84065">
        <ele>1007.508</ele>
        <time>2016-06-07T23:12:13Z</time>
      </trkpt>
      <trkpt lat="44.69844" lon="3.84048">
        <ele>1007.7</ele>
      </trkpt>
      <trkpt lat="44.6974" lon="3.83901">
        <ele>990.631</ele>
        <time>2019-03-25T19:34:11Z</time>
      </trkpt>
      <trkpt lat="44.69714" lon="3.83781">
        <ele>971.492</ele>
        <time>2016-06-07T23:15:53Z</time>
      </trkpt>
      <trkpt lat="44.69661" lon="3.83752">
        <ele>966.33</ele>
        <time>2016-06-07T23:16:13Z</time>
      </trkpt>
      <trkpt lat="44.69649" lon="3.83726">
        <ele>966.288</ele>
        <time>2016-06-07T23:16:33Z</time>
      </trkpt>
      <trkpt lat="44.69654" lon="3.83703">
        <ele>966.93</ele>
        <time>2016-06-07T23:16:53Z</time>
      </trkpt>
      <trkpt lat="44.69676" lon="3.83676">
        <ele>962.25</ele>
        <time>2016-06-07T23:17:13Z</time>
      </trkpt>
      <trkpt lat="44.69686" lon="3.83655">
        <ele>958.051</ele>
        <time>2016-06-07T23:17:33Z</time>
      </trkpt>
      <trkpt lat="44.69677" lon="3.83642">
        <ele>958.521</ele>
        <time>2016-06-07T23:17:53Z</time>
      </trkpt>
      <trkpt lat="44.69645" lon="3.83622">
        <ele>962.841</ele>
        <time>2016-06-07T23:18:13Z</time>
      </trkpt>
      <trkpt lat="44.69621" lon="3.83574">
        <ele>960.305</ele>
        <time>2016-06-07T23:18:33Z</time>
      </trkpt>
      <trkpt lat="44.6958" lon="3.83441">
        <ele>961.508</ele>
        <time>2016-06-07T23:18:53Z</time>
      </trkpt>
      <trkpt lat="44.69654" lon="3.83426">
        <ele>958.495</ele>
        <time>2016-06-07T23:19:13Z</time>
      </trkpt>
      <trkpt lat="44.69733" lon="3.83438">
        <ele>970.336</ele>
        <time>2016-06-07T23:19:33Z</time>
      </trkpt>
      <trkpt lat="44.69772" lon="3.83467">
        <ele>971.927</ele>
        <time>2016-06-07T23:19:53Z</time>
      </trkpt>
      <trkpt lat="44.69779" lon="3.83457">
        <ele>974.445</ele>
        <time>2016-06-07T23:20:13Z</time>
      </trkpt>
      <trkpt lat="44.69754" lon="3.83346">
        <ele>993.313</ele>
        <time>2016-06-07T23:20:33Z</time>
      </trkpt>
      <trkpt lat="44.69711" lon="3.8322">
        <ele>1005.085</ele>
        <time>2016-06-07T23:20:53Z</time>
      </trkpt>
      <trkpt lat="44.69651" lon="3.83121">
        <ele>1015.895</ele>
        <time>2016-06-07T23:21:13Z</time>
      </trkpt>
      <trkpt lat="44.6961" lon="3.83017">
        <ele>1024.956</ele>
        <time>2016-06-07T23:21:33Z</time>
      </trkpt>
      <trkpt lat="44.69613" lon="3.82938">
        <ele>1033.529</ele>
        <time>2016-06-07T23:21:53Z</time>
      </trkpt>
      <trkpt lat="44.69596" lon="3.82855">
        <ele>1036.3</ele>
        <time>2016-06-07T23:22:13Z</time>
      </trkpt>
      <trkpt lat="44.69585" lon="3.82715">
        <ele>1043.32</ele>
        <time>2016-06-07T23:22:33Z</time>
      </trkpt>
      <trkpt lat="44.69592" lon="3.82621">
        <ele>1047.608</ele>
        <time>2016-06-07T23:22:53Z</time>
      </trkpt>
      <trkpt lat="44.69582" lon="3.82573">
        <ele>1050.345</ele>
        <time>2016-06-07T23:23:13Z</time>
      </trkpt>
      <trkpt lat="44.69466" lon="3.82516">
        <ele>1050.426</ele>
        <time>2016-06-07T23:23:33Z</time>
      </trkpt>
      <trkpt lat="44.69427" lon="3.82483">
        <ele>1050.217</ele>
        <time>2016-06-07T23:23:53Z</time>
      </trkpt>
      <trkpt lat="44.69384" lon="3.82454">
        <ele>1048.685</ele>
        <time>2016-06-07T23:24:13Z</time>
      </trkpt>
      <trkpt lat="44.69317" lon="3.8235">
        <ele>1045.543</ele>
        <time>2016-06-07T23:24:33Z</time>
      </trkpt>
      <trkpt lat="44.69283" lon="3.8228">
        <ele>1044.095</ele>
        <time>2016-06-07T23:24:53Z</time>
      </trkpt>
      <trkpt lat="44.69261" lon="3.82257">
        <ele>1044.365</ele>
        <time>2016-06-07T23:25:13Z</time>
      </trkpt>
      <trkpt lat="44.69087" lon="3.82238">
        <ele>1050.726</ele>
        <time>2019-03-25T19:44:11Z</time>
      </trkpt>
      <trkpt lat="44.68898" lon="3.82512">
        <ele>1070.618</ele>
        <time>2019-03-25T19:44:31Z</time>
      </trkpt>
      <trkpt lat="44.688" lon="3.8258">
        <ele>1064.398</ele>
        <time>2019-03-25T19:44:51Z</time>
      </trkpt>
      <trkpt lat="44.68657" lon="3.82641">
        <ele>1056.817</ele>
        <time>2019-03-25T19:45:11Z</time>
      </trkpt>
      <trkpt lat="44.68539" lon="3.82625">
        <ele>1058.208</ele>
        <time>2019-03-25T19:45:31Z</time>
      </trkpt>
      <trkpt lat="44.68522" lon="3.82571">
        <ele>1061.574</ele>
        <time>2019-03-25T19:45:51Z</time>
      </trkpt>
      <trkpt lat="44.68517" lon="3.82535">
        <ele>1065.675</ele>
        <time>2019-03-25T19:46:11Z</time>
      </trkpt>
      <trkpt lat="44.68494" lon="3.82516">
        <ele>1067.746</ele>
        <time>2019-03-25T19:46:31Z</time>
      </trkpt>
      <trkpt lat="44.68451" lon="3.82491">
        <ele>1067.544</ele>
        <time>2019-03-25T19:46:51Z</time>
      </trkpt>
      <trkpt lat="44.68397" lon="3.82407">
        <ele>1083.032</ele>
        <time>2019-03-25T19:47:11Z</time>
      </trkpt>
      <trkpt lat="44.68358" lon="3.82322">
        <ele>1089.774</ele>
        <time>2019-03-25T19:47:31Z</time>
      </trkpt>
      <trkpt lat="44.68348" lon="3.82251">
        <ele>1099.594</ele>
        <time>2019-03-25T19:47:51Z</time>
      </trkpt>
      <trkpt lat="44.68287" lon="3.82204">
        <ele>1110.315</ele>
        <time>2019-03-25T19:48:11Z</time>
      </trkpt>
      <trkpt lat="44.68229" lon="3.82176">
        <ele>1115.448</ele>
        <time>2019-03-25T19:48:31Z</time>
      </trkpt>
      <trkpt lat="44.68204" lon="3.8213">
        <ele>1121.061</ele>
        <time>2019-03-25T19:48:51Z</time>
      </trkpt>
      <trkpt lat="44.68192" lon="3.82029">
        <ele>1128.717</ele>
        <time>2019-03-25T19:49:11Z</time>
      </trkpt>
      <trkpt lat="44.68192" lon="3.81921">
        <ele>1129.908</ele>
        <time>2019-03-25T19:49:31Z</time>
      </trkpt>
      <trkpt lat="44.68211" lon="3.8186">
        <ele>1137.167</ele>
        <time>2019-03-25T19:49:51Z</time>
      </trkpt>
      <trkpt lat="44.68161" lon="3.81864">
        <ele>1136.488</ele>
        <time>2019-03-25T19:50:11Z</time>
      </trkpt>
      <trkpt lat="44.68158" lon="3.81866">
        <ele>1135.999</ele>
        <time>2016-06-07T23:33:33Z</time>
      </trkpt>
      <trkpt lat="44.68127" lon="3.81864">
        <ele>1135.637</ele>
        <time>2016-06-07T23:33:53Z</time>
      </trkpt>
      <trkpt lat="44.68052" lon="3.81664">
        <ele>1143.025</ele>
        <time>2016-06-07T23:34:13Z</time>
      </trkpt>
      <trkpt lat="44.6805" lon="3.81636">
        <ele>1143.647</ele>
        <time>2016-06-07T23:34:33Z</time>
      </trkpt>
      <trkpt lat="44.68041" lon="3.81624">
        <ele>1142.997</ele>
        <time>2016-06-07T23:34:53Z</time>
      </trkpt>
      <trkpt lat="44.68042" lon="3.81601">
        <ele>1143.068</ele>
        <time>2016-06-07T23:35:13Z</time>
      </trkpt>
      <trkpt lat="44.68035" lon="3.81565">
        <ele>1142.596</ele>
        <time>2016-06-07T23:35:33Z</time>
      </trkpt>
      <trkpt lat="44.68016" lon="3.8152">
        <ele>1139.731</ele>
        <time>2016-06-07T23:35:53Z</time>
      </trkpt>
      <trkpt lat="44.68015" lon="3.81352">
        <ele>1136.424</ele>
        <time>2016-06-07T23:36:13Z</time>
      </trkpt>
      <trkpt lat="44.67988" lon="3.81259">
        <ele>1140.608</ele>
        <time>2016-06-07T23:36:33Z</time>
      </trkpt>
      <trkpt lat="44.67984" lon="3.81221">
        <ele>1142.242</ele>
        <time>2016-06-07T23:36:53Z</time>
      </trkpt>
      <trkpt lat="44.67971" lon="3.81165">
        <ele>1141.073</ele>
        <time>2016-06-07T23:37:13Z</time>
      </trkpt>
      <trkpt lat="44.67955" lon="3.81116">
        <ele>1139.434</ele>
        <time>2016-06-07T23:37:33Z</time>
      </trkpt>
      <trkpt lat="44.67938" lon="3.81084">
        <ele>1139.322</ele>
        <time>2016-06-07T23:37:53Z</time>
      </trkpt>
      <trkpt lat="44.67933" lon="3.81055">
        <ele>1139.41</ele>
        <time>2016-06-07T23:38:13Z</time>
      </trkpt>
      <trkpt lat="44.67926" lon="3.81039">
        <ele>1139.312</ele>
        <time>2016-06-07T23:38:33Z</time>
      </trkpt>
      <trkpt lat="44.67921" lon="3.81012">
        <ele>1138.562</ele>
        <time>2016-06-07T23:38:53Z</time>
      </trkpt>
      <trkpt lat="44.67958" lon="3.80965">
        <ele>1139.663</ele>
        <time>2016-06-07T23:39:13Z</time>
      </trkpt>
      <trkpt lat="44.67976" lon="3.80927">
        <ele>1141.139</ele>
        <time>2016-06-07T23:39:33Z</time>
      </trkpt>
      <trkpt lat="44.67917" lon="3.80863">
        <ele>1140.001</ele>
        <time>2016-06-07T23:39:53Z</time>
      </trkpt>
      <trkpt lat="44.67864" lon="3.80817">
        <ele>1142.621</ele>
        <time>2016-06-07T23:40:13Z</time>
      </trkpt>
      <trkpt lat="44.67831" lon="3.80753">
        <ele>1149.708</ele>
        <time>2016-06-07T23:40:33Z</time>
      </trkpt>
      <trkpt lat="44.67814" lon="3.80693">
        <ele>1153.186</ele>
        <time>2016-06-07T23:40:53Z</time>
      </trkpt>
      <trkpt lat="44.67807" lon="3.80613">
        <ele>1155.927</ele>
        <time>2016-06-07T23:41:13Z</time>
      </trkpt>
      <trkpt lat="44.67772" lon="3.80518">
        <ele>1154.968</ele>
        <time>2016-06-07T23:41:33Z</time>
      </trkpt>
      <trkpt lat="44.67741" lon="3.80468">
        <ele>1155.336</ele>
        <time>2016-06-07T23:41:53Z</time>
      </trkpt>
      <trkpt lat="44.67714" lon="3.80446">
        <ele>1157.234</ele>
        <time>2016-06-07T23:42:13Z</time>
      </trkpt>
      <trkpt lat="44.67671" lon="3.80426">
        <ele>1159.956</ele>
        <time>2016-06-07T23:42:33Z</time>
      </trkpt>
      <trkpt lat="44.67666" lon="3.80393">
        <ele>1162.756</ele>
        <time>2016-06-07T23:42:53Z</time>
      </trkpt>
      <trkpt lat="44.67641" lon="3.80365">
        <ele>1164.037</ele>
        <time>2016-06-07T23:43:13Z</time>
      </trkpt>
      <trkpt lat="44.67596" lon="3.80291">
        <ele>1167.659</ele>
        <time>2016-06-07T23:43:33Z</time>
      </trkpt>
      <trkpt lat="44.67568" lon="3.80214">
        <ele>1171.503</ele>
        <time>2016-06-07T23:43:53Z</time>
      </trkpt>
      <trkpt lat="44.67535" lon="3.8016">
        <ele>1175.523</ele>
        <time>2016-06-07T23:44:13Z</time>
      </trkpt>
      <trkpt lat="44.67492" lon="3.80117">
        <ele>1176.008</ele>
        <time>2016-06-07T23:44:33Z</time>
      </trkpt>
      <trkpt lat="44.67475" lon="3.80081">
        <ele>1177.878</ele>
        <time>2016-06-07T23:44:53Z</time>
      </trkpt>
      <trkpt lat="44.6746" lon="3.80028">
        <ele>1178.589</ele>
        <time>2016-06-07T23:45:13Z</time>
      </trkpt>
      <trkpt lat="44.67412" lon="3.79957">
        <ele>1175.14</ele>
        <time>2016-06-07T23:45:33Z</time>
      </trkpt>
      <trkpt lat="44.67374" lon="3.79934">
        <ele>1177.018</ele>
        <time>2016-06-07T23:45:53Z</time>
      </trkpt>
      <trkpt lat="44.67302" lon="3.79909">
        <ele>1173.346</ele>
        <time>2016-06-07T23:46:13Z</time>
      </trkpt>
      <trkpt lat="44.67186" lon="3.79848">
        <ele>1171.738</ele>
        <time>2016-06-07T23:46:33Z</time>
      </trkpt>
      <trkpt lat="44.67086" lon="3.79775">
        <ele>1170.978</ele>
        <time>2016-06-07T23:46:53Z</time>
      </trkpt>
      <trkpt lat="44.67013" lon="3.79704">
        <ele>1169.219</ele>
        <time>2016-06-07T23:47:13Z</time>
      </trkpt>
      <trkpt lat="44.66922" lon="3.79593">
        <ele>1171.658</ele>
        <time>2016-06-07T23:47:33Z</time>
      </trkpt>
      <trkpt lat="44.66906" lon="3.79558">
        <ele>1172.452</ele>
        <time>2016-06-07T23:47:53Z</time>
      </trkpt>
      <trkpt lat="44.66805" lon="3.79394">
        <ele>1185.317</ele>
        <time>2016-06-07T23:48:13Z</time>
      </trkpt>
      <trkpt lat="44.6675" lon="3.79347">
        <ele>1194.008</ele>
        <time>2016-06-07T23:48:33Z</time>
      </trkpt>
      <trkpt lat="44.66716" lon="3.79324">
        <ele>1197.868</ele>
        <time>2016-06-07T23:48:53Z</time>
      </trkpt>
      <trkpt lat="44.66672" lon="3.79278">
        <ele>1204.259</ele>
        <time>2016-06-07T23:49:13Z</time>
      </trkpt>
      <trkpt lat="44.66648" lon="3.79238">
        <ele>1208.92</ele>
        <time>2016-06-07T23:49:33Z</time>
      </trkpt>
      <trkpt lat="44.66616" lon="3.792">
        <ele>1211.548</ele>
        <time>2016-06-07T23:49:53Z</time>
      </trkpt>
      <trkpt lat="44.66606" lon="3.79173">
        <ele>1212.026</ele>
        <time>2016-06-07T23:50:13Z</time>
      </trkpt>
      <trkpt lat="44.66591" lon="3.79146">
        <ele>1211.478</ele>
        <time>2016-06-07T23:50:33Z</time>
      </trkpt>
      <trkpt lat="44.6658" lon="3.7911">
        <ele>1212.768</ele>
        <time>2016-06-07T23:50:53Z</time>
      </trkpt>
      <trkpt lat="44.66525" lon="3.79035">
        <ele>1212.899</ele>
        <time>2016-06-07T23:51:13Z</time>
      </trkpt>
      <trkpt lat="44.66501" lon="3.78985">
        <ele>1213.778</ele>
        <time>2016-06-07T23:51:33Z</time>
      </trkpt>
      <trkpt lat="44.66458" lon="3.78918">
        <ele>1215.333</ele>
        <time>2016-06-07T23:51:53Z</time>
      </trkpt>
      <trkpt lat="44.66418" lon="3.7888">
        <ele>1218.326</ele>
        <time>2016-06-07T23:52:13Z</time>
      </trkpt>
      <trkpt lat="44.66412" lon="3.78865">
        <ele>1218.708</ele>
        <time>2016-06-07T23:52:33Z</time>
      </trkpt>
      <trkpt lat="44.66344" lon="3.78818">
        <ele>1217.04</ele>
        <time>2016-06-07T23:52:53Z</time>
      </trkpt>
      <trkpt lat="44.66314" lon="3.78746">
        <ele>1217.721</ele>
        <time>2016-06-07T23:53:13Z</time>
      </trkpt>
      <trkpt lat="44.66297" lon="3.78692">
        <ele>1217.492</ele>
        <time>2016-06-07T23:53:33Z</time>
      </trkpt>
      <trkpt lat="44.66189" lon="3.7849">
        <ele>1215.12</ele>
        <time>2016-06-07T23:53:53Z</time>
      </trkpt>
      <trkpt lat="44.66142" lon="3.78431">
        <ele>1217.858</ele>
        <time>2016-06-07T23:54:13Z</time>
      </trkpt>
      <trkpt lat="44.66097" lon="3.78399">
        <ele>1220.59</ele>
        <time>2016-06-07T23:54:33Z</time>
      </trkpt>
      <trkpt lat="44.66069" lon="3.78324">
        <ele>1220.53</ele>
        <time>2016-06-07T23:54:53Z</time>
      </trkpt>
      <trkpt lat="44.66072" lon="3.78269">
        <ele>1220.891</ele>
        <time>2016-06-07T23:55:13Z</time>
      </trkpt>
      <trkpt lat="44.66038" lon="3.78172">
        <ele>1217.681</ele>
        <time>2016-06-07T23:55:33Z</time>
      </trkpt>
      <trkpt lat="44.66001" lon="3.78086">
        <ele>1220.961</ele>
        <time>2016-06-07T23:55:53Z</time>
      </trkpt>
      <trkpt lat="44.65979" lon="3.78051">
        <ele>1222.317</ele>
        <time>2016-06-07T23:56:13Z</time>
      </trkpt>
      <trkpt lat="44.65946" lon="3.77926">
        <ele>1219.908</ele>
        <time>2019-03-25T20:13:31Z</time>
      </trkpt>
      <trkpt lat="44.65852" lon="3.77977">
        <ele>1226.721</ele>
        <time>2019-03-25T20:13:51Z</time>
      </trkpt>
      <trkpt lat="44.65752" lon="3.78096">
        <ele>1226.412</ele>
        <time>2016-06-07T23:57:33Z</time>
      </trkpt>
      <trkpt lat="44.65716" lon="3.78143">
        <ele>1229.623</ele>
        <time>2016-06-07T23:57:53Z</time>
      </trkpt>
      <trkpt lat="44.65675" lon="3.78231">
        <ele>1229.551</ele>
        <time>2016-06-07T23:58:13Z</time>
      </trkpt>
      <trkpt lat="44.65629" lon="3.78306">
        <ele>1232.449</ele>
        <time>2016-06-07T23:58:33Z</time>
      </trkpt>
      <trkpt lat="44.65602" lon="3.78399">
        <ele>1235.051</ele>
        <time>2016-06-07T23:58:53Z</time>
      </trkpt>
      <trkpt lat="44.65599" lon="3.78471">
        <ele>1235.361</ele>
        <time>2016-06-07T23:59:13Z</time>
      </trkpt>
      <trkpt lat="44.65585" lon="3.78589">
        <ele>1235.722</ele>
        <time>2016-06-07T23:59:33Z</time>
      </trkpt>
      <trkpt lat="44.65563" lon="3.7879">
        <ele>1225.576</ele>
        <time>2016-06-07T23:59:53Z</time>
      </trkpt>
      <trkpt lat="44.65538" lon="3.78909">
        <ele>1218.99</ele>
        <time>2016-06-08T00:00:13Z</time>
      </trkpt>
      <trkpt lat="44.65507" lon="3.79201">
        <ele>1217.919</ele>
        <time>2016-06-08T00:00:33Z</time>
      </trkpt>
      <trkpt lat="44.6552" lon="3.79257">
        <ele>1213.508</ele>
        <time>2016-06-08T00:00:53Z</time>
      </trkpt>
      <trkpt lat="44.65515" lon="3.79328">
        <ele>1211.69</ele>
        <time>2016-06-08T00:01:13Z</time>
      </trkpt>
      <trkpt lat="44.65501" lon="3.79391">
        <ele>1208.841</ele>
        <time>2016-06-08T00:01:33Z</time>
      </trkpt>
      <trkpt lat="44.65489" lon="3.79488">
        <ele>1200.752</ele>
        <time>2016-06-08T00:01:53Z</time>
      </trkpt>
      <trkpt lat="44.65487" lon="3.7953">
        <ele>1200.31</ele>
        <time>2016-06-08T00:02:13Z</time>
      </trkpt>
      <trkpt lat="44.65538" lon="3.79645">
        <ele>1191.098</ele>
        <time>2019-03-25T20:19:11Z</time>
      </trkpt>
      <trkpt lat="44.65586" lon="3.79744">
        <ele>1186.1</ele>
      </trkpt>
      <trkpt lat="44.65559" lon="3.79772">
        <ele>1185</ele>
      </trkpt>
      <trkpt lat="44.65482" lon="3.79814">
        <ele>1184.29</ele>
        <time>2019-03-25T20:19:51Z</time>
      </trkpt>
      <trkpt lat="44.65425" lon="3.7983">
        <ele>1182.431</ele>
        <time>2019-03-25T20:20:11Z</time>
      </trkpt>
      <trkpt lat="44.65362" lon="3.79892">
        <ele>1172.556</ele>
        <time>2016-06-08T00:03:33Z</time>
      </trkpt>
      <trkpt lat="44.65322" lon="3.79915">
        <ele>1170.259</ele>
        <time>2016-06-08T00:03:53Z</time>
      </trkpt>
      <trkpt lat="44.65305" lon="3.79938">
        <ele>1167.714</ele>
        <time>2016-06-08T00:04:13Z</time>
      </trkpt>
      <trkpt lat="44.65296" lon="3.79981">
        <ele>1162.908</ele>
        <time>2016-06-08T00:04:33Z</time>
      </trkpt>
      <trkpt lat="44.65234" lon="3.8008">
        <ele>1154.188</ele>
        <time>2016-06-08T00:04:53Z</time>
      </trkpt>
      <trkpt lat="44.65231" lon="3.80115">
        <ele>1148.979</ele>
        <time>2016-06-08T00:05:13Z</time>
      </trkpt>
      <trkpt lat="44.65234" lon="3.80156">
        <ele>1146.43</ele>
        <time>2016-06-08T00:05:33Z</time>
      </trkpt>
      <trkpt lat="44.65229" lon="3.80194">
        <ele>1147.548</ele>
        <time>2016-06-08T00:05:53Z</time>
      </trkpt>
      <trkpt lat="44.65208" lon="3.80226">
        <ele>1147.456</ele>
        <time>2016-06-08T00:06:13Z</time>
      </trkpt>
      <trkpt lat="44.65208" lon="3.80226">
        <ele>1147.498</ele>
        <time>2016-06-08T00:06:33Z</time>
      </trkpt>
      <trkpt lat="44.65111" lon="3.80281">
        <ele>1140.028</ele>
        <time>2016-06-08T00:06:53Z</time>
      </trkpt>
      <trkpt lat="44.64995" lon="3.80325">
        <ele>1131.599</ele>
        <time>2019-03-25T20:24:11Z</time>
      </trkpt>
      <trkpt lat="44.64861" lon="3.80329">
        <ele>1119.654</ele>
        <time>2016-06-08T00:07:53Z</time>
      </trkpt>
      <trkpt lat="44.64813" lon="3.80338">
        <ele>1117.856</ele>
        <time>2016-06-08T00:08:13Z</time>
      </trkpt>
      <trkpt lat="44.6478" lon="3.80325">
        <ele>1119.211</ele>
        <time>2016-06-08T00:08:33Z</time>
      </trkpt>
    </trkseg>
  </trk>
</gpx>